Time;durP1;ratioP1;P1;durP2;ratioP2;P2;SDS_P1;SDS_P2;PMS_P1;PMS_P2;Temp;Humidity;BMP_temperature;BMP_pressure;BME280_temperature;BME280_humidity;BME280_pressure;Samples;Min_cycle;Max_cycle;Signal;HPM_P1;HPM_P2
2023/10/20 00:00:15;;;;;;;3.33;2.08;;;15.50;74.70;;;;;;10530696;28;20077;-62
2023/10/20 00:05:17;;;;;;;3.17;1.40;;;15.50;74.70;;;;;;10513560;28;20024;-62
2023/10/20 00:10:17;;;;;;;2.88;1.90;;;15.50;74.80;;;;;;10530527;28;20031;-62
2023/10/20 00:15:20;;;;;;;2.10;1.90;;;15.50;74.80;;;;;;10531553;28;20024;-62
2023/10/20 00:20:21;;;;;;;3.38;1.75;;;15.50;74.80;;;;;;10512775;28;20040;-62
2023/10/20 00:25:22;;;;;;;2.58;1.73;;;15.50;74.80;;;;;;10530477;28;20036;-62
2023/10/20 00:30:23;;;;;;;1.90;1.40;;;15.50;74.80;;;;;;10521924;28;20031;-61
2023/10/20 00:35:24;;;;;;;1.95;1.50;;;15.50;74.80;;;;;;10512239;28;20446;-61
2023/10/20 00:40:25;;;;;;;3.47;2.50;;;15.50;74.80;;;;;;10530087;28;20096;-62
2023/10/20 00:45:26;;;;;;;2.40;1.30;;;15.50;74.80;;;;;;10512045;28;20690;-62
2023/10/20 00:50:28;;;;;;;2.58;1.95;;;15.50;74.80;;;;;;10529497;28;20039;-61
2023/10/20 00:55:30;;;;;;;2.75;1.55;;;15.50;74.80;;;;;;10516992;28;20048;-61
2023/10/20 01:00:31;;;;;;;2.10;1.75;;;15.50;74.80;;;;;;10536750;28;20089;-61
2023/10/20 01:05:32;;;;;;;2.92;1.77;;;15.50;74.80;;;;;;10538379;28;20022;-61
2023/10/20 01:10:33;;;;;;;3.28;1.80;;;15.50;74.80;;;;;;10538001;28;20329;-62
2023/10/20 01:15:37;;;;;;;2.92;1.70;;;15.50;74.80;;;;;;10519600;28;20032;-62
2023/10/20 01:20:38;;;;;;;3.10;1.92;;;15.50;74.80;;;;;;10537541;28;20032;-62
2023/10/20 01:25:39;;;;;;;2.53;1.77;;;15.50;74.80;;;;;;10537147;28;20084;-62
2023/10/20 01:30:40;;;;;;;3.03;2.05;;;15.50;74.80;;;;;;10547421;28;20130;-61
2023/10/20 01:35:41;;;;;;;2.88;1.65;;;15.50;74.90;;;;;;10537504;28;20445;-61
2023/10/20 01:40:41;;;;;;;2.72;1.73;;;15.50;74.90;;;;;;10537006;28;20028;-61
2023/10/20 01:45:42;;;;;;;2.72;2.20;;;15.50;75.50;;;;;;10536394;28;20077;-62
2023/10/20 01:50:44;;;;;;;3.22;2.03;;;15.50;74.90;;;;;;10536525;28;20031;-62
2023/10/20 01:55:49;;;;;;;3.55;2.20;;;15.50;74.90;;;;;;10517828;28;20036;-61
2023/10/20 02:00:50;;;;;;;2.80;1.88;;;15.50;74.80;;;;;;10534347;28;20036;-61
2023/10/20 02:05:51;;;;;;;3.45;2.40;;;15.50;74.80;;;;;;10517885;28;20062;-61
2023/10/20 02:10:52;;;;;;;2.97;2.22;;;15.50;74.90;;;;;;10535800;28;20034;-61
2023/10/20 02:15:53;;;;;;;3.33;2.63;;;15.50;74.90;;;;;;10517754;28;20077;-61
2023/10/20 02:21:03;;;;;;;4.72;2.63;;;15.50;74.90;;;;;;10550440;28;20032;-62
2023/10/20 02:26:06;;;;;;;2.95;2.13;;;15.50;74.80;;;;;;10535184;28;20024;-62
2023/10/20 02:31:18;;;;;;;4.68;3.05;;;15.50;74.90;;;;;;10545550;28;20024;-62
2023/10/20 02:36:21;;;;;;;5.00;3.38;;;15.50;74.90;;;;;;10517169;28;20085;-62
2023/10/20 02:41:22;;;;;;;3.67;2.60;;;15.50;75.00;;;;;;10516009;28;20027;-62
2023/10/20 02:46:22;;;;;;;4.78;2.45;;;15.50;74.90;;;;;;10516671;28;20035;-62
2023/10/20 02:51:23;;;;;;;3.05;2.38;;;15.50;74.90;;;;;;10515623;28;20700;-62
2023/10/20 02:56:24;;;;;;;4.70;2.42;;;15.50;75.00;;;;;;10515519;28;20050;-62
2023/10/20 03:01:26;;;;;;;3.92;2.40;;;15.40;74.90;;;;;;10533387;28;20660;-61
2023/10/20 03:06:26;;;;;;;3.53;2.83;;;15.50;75.00;;;;;;10533297;28;20059;-61
2023/10/20 03:11:27;;;;;;;4.10;2.35;;;15.50;75.00;;;;;;10514685;28;20103;-61
2023/10/20 03:16:28;;;;;;;3.83;2.60;;;15.50;75.00;;;;;;10514280;28;20036;-61
2023/10/20 03:21:28;;;;;;;4.03;2.90;;;15.50;75.00;;;;;;10514059;28;20024;-61
2023/10/20 03:26:29;;;;;;;3.65;2.80;;;15.50;75.00;;;;;;10532839;28;20040;-62
2023/10/20 03:31:31;;;;;;;4.03;2.65;;;15.50;75.00;;;;;;10542769;28;20042;-62
2023/10/20 03:36:32;;;;;;;4.47;3.30;;;15.50;75.00;;;;;;10532402;28;20052;-61
2023/10/20 03:41:32;;;;;;;4.60;3.00;;;15.50;75.00;;;;;;10514074;28;20036;-62
2023/10/20 03:46:43;;;;;;;4.13;2.90;;;15.50;75.00;;;;;;10532342;28;20024;-62
2023/10/20 03:51:49;;;;;;;4.95;3.17;;;15.50;75.00;;;;;;10531348;28;20035;-62
2023/10/20 03:56:50;;;;;;;4.90;3.65;;;15.50;75.00;;;;;;10513721;28;20082;-62
2023/10/20 04:01:51;;;;;;;4.78;3.50;;;15.50;75.00;;;;;;10530965;28;20119;-62
2023/10/20 04:06:52;;;;;;;5.15;3.28;;;15.50;75.00;;;;;;10513310;28;20036;-61
2023/10/20 04:11:53;;;;;;;5.18;3.63;;;15.50;75.00;;;;;;10530658;28;20268;-62
2023/10/20 04:16:54;;;;;;;4.15;3.03;;;15.50;75.00;;;;;;10530660;28;20111;-61
2023/10/20 04:21:55;;;;;;;4.55;3.80;;;15.50;75.00;;;;;;10512302;28;20020;-62
2023/10/20 04:26:55;;;;;;;3.95;3.03;;;15.50;75.00;;;;;;10530464;28;20036;-61
2023/10/20 04:52:55;;;;;;;5.18;3.92;;;15.40;75.00;;;;;;10529513;28;20559;-62
2023/10/20 04:58:04;;;;;;;6.38;4.38;;;15.50;75.00;;;;;;10515061;28;20080;-62
2023/10/20 05:13:13;;;;;;;5.97;3.30;;;15.50;75.00;;;;;;10512142;28;20044;-61
2023/10/20 05:18:14;;;;;;;5.97;4.63;;;15.40;74.90;;;;;;10511454;28;20352;-62
2023/10/20 05:23:16;;;;;;;5.30;3.58;;;15.40;74.90;;;;;;10528303;28;20032;-61
2023/10/20 05:28:17;;;;;;;5.35;3.78;;;15.40;75.00;;;;;;10512101;28;20040;-62
2023/10/20 05:33:17;;;;;;;5.32;3.30;;;15.40;75.00;;;;;;10514163;28;20390;-61
2023/10/20 05:38:19;;;;;;;5.57;3.88;;;15.40;75.00;;;;;;10528772;28;20107;-62
2023/10/20 05:43:19;;;;;;;5.07;3.60;;;15.40;74.90;;;;;;10534068;28;20097;-62
2023/10/20 05:48:20;;;;;;;8.00;3.70;;;15.50;75.00;;;;;;10536583;28;20036;-62
2023/10/20 05:53:21;;;;;;;5.65;4.05;;;15.40;74.90;;;;;;10536658;28;20050;-62
2023/10/20 05:58:22;;;;;;;5.22;3.45;;;15.40;75.00;;;;;;10535856;28;20032;-62
2023/10/20 06:03:23;;;;;;;5.18;3.67;;;15.40;75.00;;;;;;10551602;28;20379;-62
2023/10/20 06:08:23;;;;;;;4.60;3.15;;;15.40;74.90;;;;;;10535441;28;20042;-61
2023/10/20 06:13:24;;;;;;;5.30;3.28;;;15.40;75.00;;;;;;10517444;28;20036;-61
2023/10/20 06:18:27;;;;;;;4.57;3.38;;;15.40;74.90;;;;;;10534948;28;20092;-61
2023/10/20 06:23:27;;;;;;;5.75;3.67;;;15.40;74.90;;;;;;10550470;28;20065;-62
2023/10/20 06:28:28;;;;;;;4.57;3.15;;;15.40;74.90;;;;;;10535139;28;20054;-62
2023/10/20 06:33:32;;;;;;;4.45;3.17;;;15.40;74.90;;;;;;10518791;28;20074;-62
2023/10/20 06:38:45;;;;;;;5.15;3.63;;;15.40;74.90;;;;;;10535961;28;20042;-61
2023/10/20 06:43:46;;;;;;;5.15;3.83;;;15.40;74.90;;;;;;10536276;28;20163;-62
2023/10/20 06:48:47;;;;;;;5.05;3.55;;;15.40;74.90;;;;;;10536512;28;20611;-62
2023/10/20 06:53:48;;;;;;;5.28;2.95;;;15.40;74.90;;;;;;10534646;28;20052;-62
2023/10/20 06:58:49;;;;;;;4.90;3.70;;;15.40;74.90;;;;;;10517244;28;20577;-62
2023/10/20 07:03:49;;;;;;;4.50;3.53;;;15.40;74.90;;;;;;10551714;28;20024;-62
2023/10/20 07:08:50;;;;;;;4.40;3.08;;;15.40;74.90;;;;;;10491811;28;20058;-62
2023/10/20 07:13:51;;;;;;;4.53;2.90;;;15.40;74.90;;;;;;10493181;28;20028;-61
2023/10/20 07:18:54;;;;;;;4.97;3.17;;;15.40;74.90;;;;;;10491065;28;20380;-62
2023/10/20 07:23:55;;;;;;;4.78;2.83;;;15.40;75.00;;;;;;10526296;28;20497;-62
2023/10/20 07:28:56;;;;;;;4.78;3.78;;;15.40;74.90;;;;;;10505516;28;20016;-62
2023/10/20 07:33:58;;;;;;;4.43;3.13;;;15.40;74.90;;;;;;10536819;28;20032;-62
2023/10/20 07:38:58;;;;;;;5.65;3.38;;;15.40;74.90;;;;;;10515762;28;20032;-62
2023/10/20 07:43:59;;;;;;;4.38;3.42;;;15.40;74.90;;;;;;10533823;28;20052;-62
2023/10/20 07:49:00;;;;;;;4.38;2.90;;;15.40;74.90;;;;;;10515283;28;20459;-62
2023/10/20 07:54:00;;;;;;;4.78;3.20;;;15.40;74.90;;;;;;10515383;28;20048;-62
2023/10/20 07:59:02;;;;;;;4.32;2.72;;;15.40;74.90;;;;;;10533573;28;20046;-62
2023/10/20 08:04:03;;;;;;;4.00;2.65;;;15.40;74.90;;;;;;10515266;28;20047;-62
2023/10/20 08:09:04;;;;;;;4.30;3.33;;;15.40;74.90;;;;;;10531863;28;20032;-62
2023/10/20 08:14:06;;;;;;;3.65;2.72;;;15.40;74.80;;;;;;10533185;28;20384;-61
2023/10/20 08:19:07;;;;;;;4.03;2.83;;;15.40;74.90;;;;;;10513346;28;20124;-61
2023/10/20 08:24:08;;;;;;;3.33;2.78;;;15.40;74.90;;;;;;10515044;28;20611;-62
2023/10/20 08:29:12;;;;;;;4.47;2.75;;;15.40;74.90;;;;;;10540124;28;20053;-62
2023/10/20 08:34:13;;;;;;;4.00;2.83;;;15.40;74.90;;;;;;10503000;28;20061;-62
2023/10/20 08:39:15;;;;;;;4.25;2.35;;;15.40;74.80;;;;;;10490113;28;20037;-62
2023/10/20 08:44:17;;;;;;;4.18;2.45;;;15.40;74.80;;;;;;10490754;28;20052;-62
2023/10/20 08:49:20;;;;;;;3.72;2.65;;;15.40;74.80;;;;;;10488105;28;20361;-62
2023/10/20 08:54:21;;;;;;;4.10;2.75;;;15.40;74.90;;;;;;10488837;28;20086;-62
2023/10/20 08:59:22;;;;;;;3.08;2.33;;;15.40;74.90;;;;;;10547262;28;20605;-61
2023/10/20 09:04:25;;;;;;;4.00;2.40;;;15.40;74.80;;;;;;10531248;28;20031;-62
2023/10/20 09:09:26;;;;;;;4.38;2.35;;;15.40;74.80;;;;;;10513726;28;20032;-61
2023/10/20 09:14:27;;;;;;;4.30;2.90;;;15.40;74.80;;;;;;10514441;28;20093;-61
2023/10/20 09:19:28;;;;;;;3.55;2.40;;;15.30;74.70;;;;;;10539268;28;20029;-61
2023/10/20 09:24:34;;;;;;;3.05;2.30;;;15.40;74.80;;;;;;10539442;28;20028;-62
2023/10/20 09:29:37;;;;;;;3.55;2.38;;;15.40;75.10;;;;;;10548523;28;20483;-62
2023/10/20 09:34:38;;;;;;;2.75;1.92;;;15.30;74.70;;;;;;10520759;28;20039;-62
2023/10/20 09:39:42;;;;;;;3.83;2.40;;;15.30;74.70;;;;;;10515748;28;20553;-62
2023/10/20 09:44:50;;;;;;;3.03;1.92;;;15.40;74.80;;;;;;10495083;28;20024;-62
2023/10/20 09:49:51;;;;;;;2.55;1.73;;;15.30;74.70;;;;;;10512329;28;20024;-62
2023/10/20 09:54:52;;;;;;;2.88;1.70;;;15.30;74.70;;;;;;10495213;28;20124;-62
2023/10/20 09:59:54;;;;;;;3.10;2.00;;;15.30;74.70;;;;;;10535041;28;20123;-62
2023/10/20 10:05:00;;;;;;;3.03;1.52;;;15.30;74.70;;;;;;10519417;28;20052;-62
2023/10/20 10:10:02;;;;;;;3.70;2.20;;;15.30;74.70;;;;;;10519727;28;20027;-62
2023/10/20 10:15:12;;;;;;;2.28;1.70;;;15.30;74.70;;;;;;10537687;28;20056;-62
2023/10/20 10:20:24;;;;;;;3.35;1.73;;;15.40;74.70;;;;;;10519534;28;20453;-62
2023/10/20 10:25:35;;;;;;;2.38;1.73;;;15.30;75.40;;;;;;10518973;28;20028;-61
2023/10/20 10:30:38;;;;;;;2.33;1.50;;;15.30;74.70;;;;;;10546645;28;20028;-61
2023/10/20 10:35:40;;;;;;;2.20;1.58;;;15.30;74.60;;;;;;10518650;28;20036;-62
2023/10/20 10:40:45;;;;;;;2.38;1.40;;;15.30;74.60;;;;;;10521412;28;20463;-62
2023/10/20 10:45:54;;;;;;;2.75;1.70;;;15.40;74.80;;;;;;10492586;28;20064;-62
2023/10/20 10:50:55;;;;;;;2.10;1.40;;;15.30;74.60;;;;;;10492517;28;20077;-62
2023/10/20 10:55:57;;;;;;;2.03;1.40;;;15.30;74.60;;;;;;10499905;28;20051;-62
2023/10/20 11:00:58;;;;;;;2.00;1.23;;;15.30;74.70;;;;;;10534563;28;20475;-62
2023/10/20 11:05:59;;;;;;;2.30;1.45;;;15.30;74.60;;;;;;10535418;28;20062;-61
2023/10/20 11:11:00;;;;;;;2.25;1.73;;;15.40;74.70;;;;;;10516102;28;20024;-62
2023/10/20 11:16:01;;;;;;;2.13;1.35;;;15.40;74.70;;;;;;10516934;28;20028;-62
2023/10/20 11:21:01;;;;;;;2.35;1.55;;;15.30;74.70;;;;;;10516850;28;20047;-61
2023/10/20 11:26:13;;;;;;;2.75;1.40;;;15.30;74.70;;;;;;10535510;28;20038;-62
2023/10/20 11:31:13;;;;;;;2.03;1.33;;;15.40;74.70;;;;;;10514637;28;20082;-62
2023/10/20 11:36:14;;;;;;;1.58;1.08;;;15.30;74.70;;;;;;10534302;28;20503;-62
2023/10/20 11:41:15;;;;;;;2.00;1.48;;;15.30;74.60;;;;;;10515149;28;20146;-62
2023/10/20 11:46:16;;;;;;;2.20;1.13;;;15.30;74.60;;;;;;10516112;28;20089;-61
2023/10/20 11:51:16;;;;;;;2.20;1.27;;;15.30;74.60;;;;;;10514705;28;20036;-62
2023/10/20 11:56:17;;;;;;;1.75;1.17;;;15.30;74.60;;;;;;10515086;28;20052;-61
2023/10/20 12:01:18;;;;;;;2.08;1.27;;;15.30;74.60;;;;;;10531594;28;20039;-62
2023/10/20 12:06:18;;;;;;;1.98;1.20;;;15.30;74.60;;;;;;10532891;28;20024;-62
2023/10/20 12:11:19;;;;;;;2.17;1.25;;;15.30;74.60;;;;;;10532690;28;20042;-62
2023/10/20 12:16:24;;;;;;;2.03;1.02;;;15.40;74.70;;;;;;10514993;28;20036;-61
2023/10/20 12:21:25;;;;;;;1.92;1.10;;;15.40;74.70;;;;;;10514738;28;20024;-61
2023/10/20 12:26:26;;;;;;;1.92;1.20;;;15.30;74.70;;;;;;10512767;28;20505;-61
2023/10/20 12:31:28;;;;;;;1.30;1.17;;;15.30;74.70;;;;;;10528764;28;20081;-61
2023/10/20 12:36:31;;;;;;;1.83;1.13;;;15.30;74.70;;;;;;10514880;28;20032;-61
2023/10/20 12:41:32;;;;;;;2.25;1.52;;;15.30;74.70;;;;;;10512137;28;20123;-62
2023/10/20 12:46:32;;;;;;;2.15;1.05;;;15.30;74.70;;;;;;10489370;28;20035;-61
2023/10/20 12:51:34;;;;;;;1.80;1.00;;;15.30;74.70;;;;;;10494223;28;20756;-61
2023/10/20 12:56:35;;;;;;;2.28;1.20;;;15.30;74.70;;;;;;10508755;28;20168;-62
2023/10/20 13:01:36;;;;;;;1.92;1.00;;;15.30;74.70;;;;;;10539960;28;20156;-62
2023/10/20 13:06:36;;;;;;;1.90;1.00;;;15.30;74.70;;;;;;10539987;28;20031;-62
2023/10/20 13:11:37;;;;;;;1.90;1.20;;;15.30;74.70;;;;;;10512429;28;20032;-62
2023/10/20 13:16:39;;;;;;;1.42;0.95;;;15.30;74.70;;;;;;10506132;28;20028;-62
2023/10/20 13:21:39;;;;;;;1.70;0.85;;;15.30;74.70;;;;;;10496554;28;20035;-61
2023/10/20 13:26:40;;;;;;;1.63;0.85;;;15.30;74.70;;;;;;10497779;28;20027;-62
2023/10/20 13:31:41;;;;;;;1.23;0.80;;;15.30;74.70;;;;;;10565067;27;20110;-62
2023/10/20 13:36:41;;;;;;;2.53;1.50;;;15.30;74.70;;;;;;10538988;28;20024;-62
2023/10/20 13:41:42;;;;;;;1.85;0.95;;;15.30;74.70;;;;;;10520333;28;20084;-61
2023/10/20 13:46:43;;;;;;;1.25;0.93;;;15.30;74.70;;;;;;10538403;28;20038;-62
2023/10/20 13:51:44;;;;;;;2.33;0.93;;;15.20;74.60;;;;;;10519662;28;20032;-63
2023/10/20 13:56:44;;;;;;;23.80;3.72;;;15.30;75.10;;;;;;10537206;28;20046;-63
2023/10/20 14:01:46;;;;;;;27.13;2.80;;;15.40;75.30;;;;;;10516625;28;20036;-62
2023/10/20 14:06:46;;;;;;;11.50;2.72;;;15.50;75.60;;;;;;10520826;28;20115;-63
2023/10/20 14:11:47;;;;;;;22.60;2.22;;;15.60;76.50;;;;;;10496363;28;20032;-61
2023/10/20 14:16:49;;;;;;;16.95;2.92;;;15.80;75.50;;;;;;10495322;28;20494;-61
2023/10/20 14:21:49;;;;;;;16.58;2.75;;;15.90;75.10;;;;;;10516813;28;20067;-61
2023/10/20 14:26:50;;;;;;;20.58;2.58;;;16.40;73.80;;;;;;10536074;28;20024;-62
2023/10/20 14:31:51;;;;;;;16.40;2.78;;;16.60;73.10;;;;;;10520826;28;20040;-62
2023/10/20 14:36:51;;;;;;;23.48;2.95;;;16.90;72.10;;;;;;10521869;28;20057;-60
2023/10/20 14:41:52;;;;;;;10.95;1.88;;;17.10;71.50;;;;;;10535818;28;20383;-61
2023/10/20 14:46:53;;;;;;;11.90;1.95;;;17.10;71.50;;;;;;10537155;28;20020;-64
2023/10/20 14:51:54;;;;;;;15.10;2.85;;;17.30;71.10;;;;;;10524454;28;20034;-63
2023/10/20 14:56:54;;;;;;;17.45;3.05;;;17.40;70.90;;;;;;10536122;28;20032;-62
2023/10/20 15:01:55;;;;;;;14.32;2.20;;;17.70;70.50;;;;;;10535643;28;20039;-62
2023/10/20 15:06:56;;;;;;;13.18;2.17;;;17.70;70.40;;;;;;10534487;28;20417;-61
2023/10/20 15:11:57;;;;;;;15.30;3.00;;;17.80;70.30;;;;;;10534384;28;20036;-64
2023/10/20 15:16:59;;;;;;;16.58;2.78;;;17.90;70.30;;;;;;10533669;28;20020;-63
2023/10/20 15:22:00;;;;;;;11.68;2.55;;;18.00;70.20;;;;;;10533397;28;20029;-64
2023/10/20 15:27:00;;;;;;;11.15;3.00;;;18.00;71.50;;;;;;10535112;28;20020;-62
2023/10/20 15:32:01;;;;;;;15.35;3.80;;;18.10;71.50;;;;;;10534753;28;20084;-64
2023/10/20 15:37:02;;;;;;;15.00;2.90;;;18.00;71.70;;;;;;10534453;28;20039;-61
2023/10/20 15:42:03;;;;;;;15.80;4.95;;;18.10;71.50;;;;;;10515955;28;20039;-61
2023/10/20 15:47:04;;;;;;;14.98;2.33;;;18.10;71.80;;;;;;10534590;28;20762;-63
2023/10/20 15:52:04;;;;;;;10.85;2.53;;;18.10;71.70;;;;;;10533432;28;20051;-63
2023/10/20 15:57:05;;;;;;;6.72;2.97;;;18.10;71.90;;;;;;10509790;28;20039;-63
2023/10/20 16:02:06;;;;;;;17.05;2.58;;;18.00;72.00;;;;;;10530354;28;20076;-63
2023/10/20 16:07:07;;;;;;;11.43;2.78;;;17.80;72.50;;;;;;10522850;28;20036;-63
2023/10/20 16:12:08;;;;;;;19.17;6.55;;;17.50;73.00;;;;;;10529837;28;20551;-61
2023/10/20 16:17:10;;;;;;;15.38;5.18;;;17.60;72.60;;;;;;10507935;28;20044;-63
2023/10/20 16:22:12;;;;;;;17.48;4.20;;;17.70;72.30;;;;;;10515872;28;20021;-63
2023/10/20 16:27:14;;;;;;;15.43;4.10;;;18.00;75.30;;;;;;10490286;28;20063;-63
2023/10/20 16:32:15;;;;;;;12.55;4.25;;;18.20;75.60;;;;;;10525732;27;20123;-62
2023/10/20 16:37:15;;;;;;;12.45;4.30;;;18.20;74.40;;;;;;10537441;28;20028;-63
2023/10/20 16:42:16;;;;;;;14.32;3.45;;;18.20;74.60;;;;;;10491082;28;20471;-63
2023/10/20 16:47:17;;;;;;;12.00;3.15;;;18.00;74.90;;;;;;10489811;28;20038;-66
2023/10/20 16:52:18;;;;;;;10.15;3.03;;;18.00;74.10;;;;;;10525760;28;20043;-62
2023/10/20 16:57:19;;;;;;;13.30;3.40;;;17.90;74.10;;;;;;10507415;28;20396;-63
2023/10/20 17:02:20;;;;;;;9.48;3.63;;;17.70;74.30;;;;;;10499762;28;20036;-61
2023/10/20 17:07:20;;;;;;;11.20;3.13;;;17.60;74.30;;;;;;10490940;28;20361;-62
2023/10/20 17:12:21;;;;;;;11.25;3.53;;;17.50;74.40;;;;;;10490641;28;20391;-63
2023/10/20 17:17:22;;;;;;;8.32;2.88;;;17.50;74.40;;;;;;10490314;28;20029;-63
2023/10/20 17:22:23;;;;;;;9.85;3.85;;;17.60;73.90;;;;;;10492705;28;20210;-62
2023/10/20 17:27:23;;;;;;;10.05;2.80;;;17.60;73.70;;;;;;10546886;28;20028;-62
2023/10/20 17:32:24;;;;;;;9.93;3.40;;;17.50;73.70;;;;;;10514085;28;20036;-62
2023/10/20 17:37:25;;;;;;;9.65;3.40;;;17.50;73.80;;;;;;10511860;28;20036;-62
2023/10/20 17:42:26;;;;;;;6.35;2.80;;;17.60;74.00;;;;;;10537932;28;20032;-62
2023/10/20 17:47:28;;;;;;;8.02;2.85;;;17.50;73.90;;;;;;10535160;28;20043;-63
2023/10/20 17:52:29;;;;;;;6.97;2.78;;;17.50;74.00;;;;;;10530914;28;20039;-61
2023/10/20 17:57:30;;;;;;;5.82;2.58;;;17.60;73.90;;;;;;10535297;28;20051;-62
2023/10/20 18:02:30;;;;;;;7.35;2.70;;;17.50;74.00;;;;;;10528379;28;20033;-62
2023/10/20 18:07:31;;;;;;;7.60;2.63;;;17.50;74.00;;;;;;10537680;28;20020;-63
2023/10/20 18:12:33;;;;;;;5.20;2.35;;;17.50;74.00;;;;;;10537911;28;20651;-63
2023/10/20 18:17:34;;;;;;;8.63;2.90;;;17.60;74.00;;;;;;10533002;28;20118;-63
2023/10/20 18:22:34;;;;;;;6.97;2.53;;;17.60;73.80;;;;;;10530673;28;20073;-63
2023/10/20 18:27:35;;;;;;;3.63;1.85;;;17.50;73.80;;;;;;10537022;28;20020;-64
2023/10/20 18:32:36;;;;;;;8.90;2.83;;;17.60;73.90;;;;;;10521998;28;20475;-62
2023/10/20 18:37:37;;;;;;;5.75;2.53;;;17.60;73.80;;;;;;10514089;28;20032;-63
2023/10/20 18:42:38;;;;;;;5.88;2.03;;;17.40;74.10;;;;;;10493647;28;20038;-63
2023/10/20 18:47:38;;;;;;;4.82;2.10;;;17.40;74.50;;;;;;10490846;28;20025;-64
2023/10/20 18:52:39;;;;;;;4.28;1.90;;;17.30;74.80;;;;;;10505918;28;20485;-63
2023/10/20 18:57:40;;;;;;;5.43;2.10;;;17.20;75.10;;;;;;10533527;28;20059;-63
2023/10/20 19:02:42;;;;;;;4.32;1.98;;;17.10;75.30;;;;;;10533684;28;20066;-64
2023/10/20 19:07:44;;;;;;;5.97;1.90;;;17.00;75.50;;;;;;10515166;28;20038;-63
2023/10/20 19:12:45;;;;;;;6.05;2.13;;;16.90;75.70;;;;;;10533217;28;20039;-64
2023/10/20 19:17:47;;;;;;;4.38;1.95;;;16.80;75.90;;;;;;10532874;28;20044;-64
2023/10/20 19:22:48;;;;;;;3.92;1.52;;;16.80;76.00;;;;;;10515689;28;20440;-64
2023/10/20 19:27:49;;;;;;;4.68;2.35;;;16.70;76.00;;;;;;10514299;28;20032;-64
2023/10/20 19:32:49;;;;;;;5.03;1.77;;;16.70;76.10;;;;;;10534791;28;20028;-64
2023/10/20 19:37:50;;;;;;;3.58;1.58;;;16.70;76.20;;;;;;10532014;28;20040;-63
2023/10/20 19:42:51;;;;;;;3.90;1.70;;;16.60;76.30;;;;;;10547835;28;20429;-64
2023/10/20 19:47:51;;;;;;;7.28;2.92;;;16.60;76.40;;;;;;10532495;28;20063;-63
2023/10/20 19:52:52;;;;;;;4.03;2.25;;;16.60;76.40;;;;;;10531866;28;20027;-64
2023/10/20 19:57:53;;;;;;;5.53;1.95;;;16.50;76.30;;;;;;10530964;28;20051;-64
2023/10/20 20:02:53;;;;;;;2.50;1.58;;;16.50;76.40;;;;;;10531473;28;20099;-64
2023/10/20 20:07:55;;;;;;;3.65;1.50;;;16.50;76.40;;;;;;10531027;28;20024;-64
2023/10/20 20:12:56;;;;;;;5.03;2.38;;;16.50;76.40;;;;;;10513245;28;20035;-64
2023/10/20 20:17:57;;;;;;;4.05;1.92;;;16.40;76.50;;;;;;10530661;28;20395;-64
2023/10/20 20:22:58;;;;;;;3.97;1.90;;;16.40;76.50;;;;;;10512667;28;20154;-64
2023/10/20 20:27:59;;;;;;;2.72;1.30;;;16.40;76.50;;;;;;10530396;28;20088;-64
2023/10/20 20:32:59;;;;;;;4.53;2.38;;;16.30;76.50;;;;;;10514499;28;20032;-64
2023/10/20 20:38:00;;;;;;;3.47;1.50;;;16.30;76.50;;;;;;10530030;28;20035;-63
2023/10/20 20:43:01;;;;;;;3.08;1.77;;;16.30;76.50;;;;;;10530553;28;20028;-63
2023/10/20 20:48:04;;;;;;;3.92;1.77;;;16.30;76.60;;;;;;10529969;28;20092;-63
2023/10/20 20:53:05;;;;;;;3.08;1.63;;;16.30;76.60;;;;;;10530079;28;20032;-64
2023/10/20 20:58:05;;;;;;;2.85;1.42;;;16.30;76.70;;;;;;10529707;28;20396;-63
2023/10/20 21:03:06;;;;;;;4.70;1.83;;;16.30;76.70;;;;;;10529781;28;20538;-63
2023/10/20 21:08:07;;;;;;;3.05;1.13;;;16.30;76.70;;;;;;10511270;28;20031;-64
2023/10/20 21:13:08;;;;;;;2.95;2.22;;;16.20;76.60;;;;;;10535191;28;20028;-64
2023/10/20 21:18:08;;;;;;;3.55;1.38;;;16.20;76.70;;;;;;10538427;28;20471;-64
2023/10/20 21:23:09;;;;;;;2.20;1.30;;;16.20;76.80;;;;;;10537736;28;20463;-64
2023/10/20 21:28:10;;;;;;;3.72;1.60;;;16.20;76.80;;;;;;10537342;28;20413;-64
2023/10/20 21:33:10;;;;;;;3.05;1.20;;;16.20;76.80;;;;;;10530104;27;20491;-64
2023/10/20 21:38:11;;;;;;;2.38;1.20;;;16.20;76.80;;;;;;10494924;28;20028;-63
2023/10/20 21:43:13;;;;;;;2.75;1.60;;;16.20;76.90;;;;;;10527636;28;20051;-64
2023/10/20 21:48:13;;;;;;;2.10;1.35;;;16.10;76.80;;;;;;10494648;28;20432;-64
2023/10/20 21:53:14;;;;;;;2.65;1.13;;;16.10;76.80;;;;;;10512625;28;20035;-64
2023/10/20 21:58:15;;;;;;;3.30;1.85;;;16.10;76.80;;;;;;10536546;28;20169;-64
2023/10/20 22:03:16;;;;;;;2.28;0.93;;;16.10;76.80;;;;;;10535978;28;20031;-64
2023/10/20 22:08:16;;;;;;;2.63;1.55;;;16.10;76.80;;;;;;10535673;28;20027;-65
2023/10/20 22:13:17;;;;;;;1.65;1.35;;;16.10;76.80;;;;;;10535972;28;20483;-64
2023/10/20 22:18:18;;;;;;;2.60;1.55;;;16.10;76.80;;;;;;10517357;28;20028;-64
2023/10/20 22:23:21;;;;;;;1.80;1.35;;;16.10;76.80;;;;;;10535042;28;20023;-64
2023/10/20 22:28:22;;;;;;;2.42;0.95;;;16.10;76.90;;;;;;10536667;28;20476;-64
2023/10/20 22:33:23;;;;;;;3.03;1.08;;;16.00;76.90;;;;;;10521694;28;20028;-62
2023/10/20 22:38:24;;;;;;;1.75;1.13;;;16.00;76.90;;;;;;10534301;28;20472;-62
2023/10/20 22:43:24;;;;;;;3.40;1.90;;;16.00;76.90;;;;;;10534690;28;20441;-64
2023/10/20 22:48:25;;;;;;;3.17;1.40;;;16.00;76.90;;;;;;10534685;28;20383;-64
2023/10/20 22:53:26;;;;;;;2.05;1.15;;;16.00;76.90;;;;;;10516073;28;20044;-63
2023/10/20 22:58:26;;;;;;;2.05;1.15;;;16.00;76.90;;;;;;10515434;28;20112;-64
2023/10/20 23:03:27;;;;;;;2.67;1.23;;;16.00;76.90;;;;;;10532563;28;20024;-64
2023/10/20 23:08:29;;;;;;;1.52;1.10;;;16.00;76.90;;;;;;10533187;28;20028;-63
2023/10/20 23:13:29;;;;;;;2.67;1.02;;;16.00;76.90;;;;;;10532422;28;20482;-64
2023/10/20 23:18:30;;;;;;;1.77;0.98;;;16.00;76.90;;;;;;10533195;28;20032;-63
2023/10/20 23:23:31;;;;;;;2.25;1.10;;;15.90;76.90;;;;;;10514804;28;20024;-64
2023/10/20 23:28:31;;;;;;;4.05;1.25;;;16.00;76.90;;;;;;10534873;28;20024;-64
2023/10/20 23:33:32;;;;;;;1.85;1.05;;;15.90;76.90;;;;;;10532016;28;20024;-63
2023/10/20 23:38:33;;;;;;;3.03;1.35;;;15.90;76.90;;;;;;10532064;28;20028;-63
2023/10/20 23:43:33;;;;;;;2.38;1.10;;;16.00;77.00;;;;;;10532389;28;20020;-64
2023/10/20 23:48:34;;;;;;;1.70;0.98;;;15.90;76.90;;;;;;10531702;28;20024;-64
2023/10/20 23:53:35;;;;;;;3.05;1.13;;;15.90;77.50;;;;;;10513394;28;20044;-64
2023/10/20 23:58:36;;;;;;;2.30;1.30;;;15.90;76.90;;;;;;10513047;28;20501;-64
